sensor_id;sensor_type;location;lat;lon;timestamp;P1;durP1;ratioP1;P2;durP2;ratioP2
19863;SDS011;10094;48.820;9.226;2024-03-08T00:03:30;29.25;;;17.25;;
19863;SDS011;10094;48.820;9.226;2024-03-08T00:10:14;24.15;;;16.27;;
19863;SDS011;10094;48.820;9.226;2024-03-08T00:16:59;25.85;;;16.55;;
19863;SDS011;10094;48.820;9.226;2024-03-08T00:23:41;27.45;;;17.20;;
19863;SDS011;10094;48.820;9.226;2024-03-08T00:30:24;25.92;;;16.15;;
19863;SDS011;10094;48.820;9.226;2024-03-08T00:37:06;30.50;;;16.63;;
19863;SDS011;10094;48.820;9.226;2024-03-08T00:43:50;26.80;;;16.60;;
19863;SDS011;10094;48.820;9.226;2024-03-08T00:50:32;25.80;;;16.88;;
19863;SDS011;10094;48.820;9.226;2024-03-08T00:57:15;29.80;;;17.33;;
19863;SDS011;10094;48.820;9.226;2024-03-08T01:03:58;30.58;;;17.35;;
19863;SDS011;10094;48.820;9.226;2024-03-08T01:10:40;25.55;;;17.13;;
19863;SDS011;10094;48.820;9.226;2024-03-08T01:17:23;26.50;;;16.80;;
19863;SDS011;10094;48.820;9.226;2024-03-08T01:24:06;24.80;;;16.08;;
19863;SDS011;10094;48.820;9.226;2024-03-08T01:30:49;25.15;;;15.70;;
19863;SDS011;10094;48.820;9.226;2024-03-08T01:37:36;26.60;;;16.65;;
19863;SDS011;10094;48.820;9.226;2024-03-08T01:44:19;25.02;;;15.55;;
19863;SDS011;10094;48.820;9.226;2024-03-08T01:51:02;28.33;;;15.88;;
19863;SDS011;10094;48.820;9.226;2024-03-08T01:57:45;27.85;;;16.80;;
19863;SDS011;10094;48.820;9.226;2024-03-08T02:04:28;25.95;;;16.45;;
19863;SDS011;10094;48.820;9.226;2024-03-08T02:11:12;27.27;;;16.10;;
19863;SDS011;10094;48.820;9.226;2024-03-08T02:17:55;25.35;;;16.10;;
19863;SDS011;10094;48.820;9.226;2024-03-08T02:24:38;25.23;;;16.35;;
19863;SDS011;10094;48.820;9.226;2024-03-08T02:31:21;29.77;;;15.95;;
19863;SDS011;10094;48.820;9.226;2024-03-08T02:38:03;24.90;;;15.75;;
19863;SDS011;10094;48.820;9.226;2024-03-08T02:44:46;24.83;;;15.52;;
19863;SDS011;10094;48.820;9.226;2024-03-08T02:51:29;24.40;;;14.63;;
19863;SDS011;10094;48.820;9.226;2024-03-08T02:58:12;26.85;;;14.85;;
19863;SDS011;10094;48.820;9.226;2024-03-08T03:04:56;23.98;;;14.40;;
19863;SDS011;10094;48.820;9.226;2024-03-08T03:11:38;25.60;;;13.60;;
19863;SDS011;10094;48.820;9.226;2024-03-08T03:18:21;19.83;;;14.27;;
19863;SDS011;10094;48.820;9.226;2024-03-08T03:25:05;25.08;;;15.05;;
19863;SDS011;10094;48.820;9.226;2024-03-08T03:31:48;20.88;;;13.55;;
19863;SDS011;10094;48.820;9.226;2024-03-08T03:38:30;27.13;;;14.88;;
19863;SDS011;10094;48.820;9.226;2024-03-08T03:45:13;24.85;;;14.63;;
19863;SDS011;10094;48.820;9.226;2024-03-08T03:51:56;24.33;;;13.93;;
19863;SDS011;10094;48.820;9.226;2024-03-08T03:58:39;28.20;;;15.27;;
19863;SDS011;10094;48.820;9.226;2024-03-08T04:05:21;23.20;;;13.35;;
19863;SDS011;10094;48.820;9.226;2024-03-08T04:12:04;21.58;;;13.52;;
19863;SDS011;10094;48.820;9.226;2024-03-08T04:18:48;22.10;;;12.88;;
19863;SDS011;10094;48.820;9.226;2024-03-08T04:25:30;23.05;;;14.73;;
19863;SDS011;10094;48.820;9.226;2024-03-08T04:32:13;24.35;;;14.32;;
19863;SDS011;10094;48.820;9.226;2024-03-08T04:38:56;24.08;;;13.93;;
19863;SDS011;10094;48.820;9.226;2024-03-08T04:45:38;23.33;;;15.55;;
19863;SDS011;10094;48.820;9.226;2024-03-08T04:52:22;21.00;;;14.15;;
19863;SDS011;10094;48.820;9.226;2024-03-08T04:59:05;25.10;;;15.90;;
19863;SDS011;10094;48.820;9.226;2024-03-08T05:05:49;23.65;;;14.73;;
19863;SDS011;10094;48.820;9.226;2024-03-08T05:12:35;26.15;;;16.33;;
19863;SDS011;10094;48.820;9.226;2024-03-08T05:19:18;26.48;;;15.70;;
19863;SDS011;10094;48.820;9.226;2024-03-08T05:26:01;25.08;;;16.15;;
19863;SDS011;10094;48.820;9.226;2024-03-08T05:32:44;36.63;;;21.08;;
19863;SDS011;10094;48.820;9.226;2024-03-08T05:39:26;27.58;;;17.00;;
19863;SDS011;10094;48.820;9.226;2024-03-08T05:46:09;25.70;;;16.17;;
19863;SDS011;10094;48.820;9.226;2024-03-08T05:52:53;28.35;;;16.58;;
19863;SDS011;10094;48.820;9.226;2024-03-08T05:59:36;27.25;;;16.88;;
19863;SDS011;10094;48.820;9.226;2024-03-08T06:06:18;32.67;;;18.20;;
19863;SDS011;10094;48.820;9.226;2024-03-08T06:13:03;41.45;;;17.75;;
19863;SDS011;10094;48.820;9.226;2024-03-08T06:19:46;28.90;;;18.27;;
19863;SDS011;10094;48.820;9.226;2024-03-08T06:26:28;36.20;;;21.35;;
19863;SDS011;10094;48.820;9.226;2024-03-08T06:33:12;26.33;;;15.85;;
19863;SDS011;10094;48.820;9.226;2024-03-08T06:39:55;30.30;;;16.70;;
19863;SDS011;10094;48.820;9.226;2024-03-08T06:46:37;24.80;;;15.75;;
19863;SDS011;10094;48.820;9.226;2024-03-08T06:53:20;24.30;;;15.63;;
19863;SDS011;10094;48.820;9.226;2024-03-08T07:00:07;26.55;;;16.58;;
19863;SDS011;10094;48.820;9.226;2024-03-08T07:06:55;23.42;;;15.82;;
19863;SDS011;10094;48.820;9.226;2024-03-08T07:13:38;24.08;;;15.55;;
19863;SDS011;10094;48.820;9.226;2024-03-08T07:20:21;23.85;;;15.40;;
19863;SDS011;10094;48.820;9.226;2024-03-08T07:27:04;24.02;;;15.80;;
19863;SDS011;10094;48.820;9.226;2024-03-08T07:33:47;22.77;;;16.25;;
19863;SDS011;10094;48.820;9.226;2024-03-08T07:40:35;25.60;;;15.32;;
19863;SDS011;10094;48.820;9.226;2024-03-08T07:47:18;21.63;;;15.95;;
19863;SDS011;10094;48.820;9.226;2024-03-08T07:54:04;22.60;;;15.10;;
19863;SDS011;10094;48.820;9.226;2024-03-08T08:00:47;21.85;;;15.32;;
19863;SDS011;10094;48.820;9.226;2024-03-08T08:07:30;23.23;;;15.35;;
19863;SDS011;10094;48.820;9.226;2024-03-08T08:14:13;22.60;;;14.40;;
19863;SDS011;10094;48.820;9.226;2024-03-08T08:20:55;24.73;;;15.35;;
19863;SDS011;10094;48.820;9.226;2024-03-08T08:27:38;23.52;;;14.75;;
19863;SDS011;10094;48.820;9.226;2024-03-08T08:34:21;21.08;;;14.80;;
19863;SDS011;10094;48.820;9.226;2024-03-08T08:41:05;23.10;;;14.82;;
19863;SDS011;10094;48.820;9.226;2024-03-08T08:47:48;22.85;;;14.75;;
19863;SDS011;10094;48.820;9.226;2024-03-08T08:54:31;28.00;;;15.65;;
19863;SDS011;10094;48.820;9.226;2024-03-08T09:01:14;22.15;;;14.73;;
19863;SDS011;10094;48.820;9.226;2024-03-08T09:08:00;23.75;;;14.55;;
19863;SDS011;10094;48.820;9.226;2024-03-08T09:14:43;20.55;;;14.85;;
19863;SDS011;10094;48.820;9.226;2024-03-08T09:21:26;20.58;;;14.93;;
19863;SDS011;10094;48.820;9.226;2024-03-08T09:28:09;21.90;;;14.35;;
19863;SDS011;10094;48.820;9.226;2024-03-08T09:34:53;21.27;;;15.05;;
19863;SDS011;10094;48.820;9.226;2024-03-08T09:41:37;23.65;;;13.38;;
19863;SDS011;10094;48.820;9.226;2024-03-08T09:48:20;20.80;;;13.55;;
19863;SDS011;10094;48.820;9.226;2024-03-08T09:55:07;21.55;;;14.25;;
19863;SDS011;10094;48.820;9.226;2024-03-08T10:01:50;18.95;;;14.18;;
19863;SDS011;10094;48.820;9.226;2024-03-08T10:08:33;22.00;;;14.52;;
19863;SDS011;10094;48.820;9.226;2024-03-08T10:15:16;21.92;;;14.18;;
19863;SDS011;10094;48.820;9.226;2024-03-08T10:21:59;20.30;;;13.55;;
19863;SDS011;10094;48.820;9.226;2024-03-08T10:28:45;22.98;;;14.35;;
19863;SDS011;10094;48.820;9.226;2024-03-08T10:35:29;20.33;;;14.48;;
19863;SDS011;10094;48.820;9.226;2024-03-08T10:42:14;21.15;;;13.98;;
19863;SDS011;10094;48.820;9.226;2024-03-08T10:49:01;21.45;;;14.55;;
19863;SDS011;10094;48.820;9.226;2024-03-08T10:55:47;24.27;;;14.98;;
19863;SDS011;10094;48.820;9.226;2024-03-08T11:02:31;21.17;;;15.15;;
19863;SDS011;10094;48.820;9.226;2024-03-08T11:23:09;21.48;;;15.05;;
19863;SDS011;10094;48.820;9.226;2024-03-08T11:30:03;22.92;;;15.48;;
19863;SDS011;10094;48.820;9.226;2024-03-08T11:37:12;23.70;;;14.70;;
19863;SDS011;10094;48.820;9.226;2024-03-08T11:44:03;19.88;;;14.82;;
19863;SDS011;10094;48.820;9.226;2024-03-08T11:50:58;25.27;;;15.38;;
19863;SDS011;10094;48.820;9.226;2024-03-08T11:57:41;25.20;;;17.08;;
19863;SDS011;10094;48.820;9.226;2024-03-08T12:04:25;23.27;;;15.65;;
19863;SDS011;10094;48.820;9.226;2024-03-08T12:11:08;23.95;;;14.68;;
19863;SDS011;10094;48.820;9.226;2024-03-08T12:17:52;22.90;;;15.02;;
19863;SDS011;10094;48.820;9.226;2024-03-08T12:24:36;23.98;;;15.80;;
19863;SDS011;10094;48.820;9.226;2024-03-08T12:31:19;24.30;;;14.77;;
19863;SDS011;10094;48.820;9.226;2024-03-08T12:38:07;23.45;;;15.07;;
19863;SDS011;10094;48.820;9.226;2024-03-08T12:44:50;26.35;;;15.52;;
19863;SDS011;10094;48.820;9.226;2024-03-08T12:51:33;21.20;;;14.85;;
19863;SDS011;10094;48.820;9.226;2024-03-08T12:58:15;22.85;;;14.82;;
19863;SDS011;10094;48.820;9.226;2024-03-08T13:04:59;23.02;;;14.88;;
19863;SDS011;10094;48.820;9.226;2024-03-08T13:11:42;26.02;;;16.00;;
19863;SDS011;10094;48.820;9.226;2024-03-08T13:18:26;24.13;;;15.32;;
19863;SDS011;10094;48.820;9.226;2024-03-08T13:25:09;21.48;;;14.45;;
19863;SDS011;10094;48.820;9.226;2024-03-08T13:31:54;24.20;;;14.88;;
19863;SDS011;10094;48.820;9.226;2024-03-08T13:38:38;28.27;;;16.77;;
19863;SDS011;10094;48.820;9.226;2024-03-08T13:45:24;19.30;;;13.90;;
19863;SDS011;10094;48.820;9.226;2024-03-08T13:52:07;21.60;;;14.85;;
19863;SDS011;10094;48.820;9.226;2024-03-08T13:58:51;23.90;;;15.13;;
19863;SDS011;10094;48.820;9.226;2024-03-08T14:05:34;23.55;;;14.93;;
19863;SDS011;10094;48.820;9.226;2024-03-08T14:12:17;21.30;;;13.95;;
19863;SDS011;10094;48.820;9.226;2024-03-08T14:19:03;22.20;;;15.20;;
19863;SDS011;10094;48.820;9.226;2024-03-08T14:25:49;24.50;;;15.07;;
19863;SDS011;10094;48.820;9.226;2024-03-08T14:32:33;22.17;;;14.25;;
19863;SDS011;10094;48.820;9.226;2024-03-08T14:39:20;26.27;;;16.27;;
19863;SDS011;10094;48.820;9.226;2024-03-08T14:46:03;21.33;;;14.48;;
19863;SDS011;10094;48.820;9.226;2024-03-08T14:52:47;23.50;;;15.15;;
19863;SDS011;10094;48.820;9.226;2024-03-08T14:59:30;19.55;;;14.40;;
19863;SDS011;10094;48.820;9.226;2024-03-08T15:06:13;22.38;;;14.80;;
19863;SDS011;10094;48.820;9.226;2024-03-08T15:12:57;21.33;;;14.63;;
19863;SDS011;10094;48.820;9.226;2024-03-08T15:19:41;20.80;;;14.65;;
19863;SDS011;10094;48.820;9.226;2024-03-08T15:26:25;20.30;;;14.25;;
19863;SDS011;10094;48.820;9.226;2024-03-08T15:33:08;21.05;;;14.23;;
19863;SDS011;10094;48.820;9.226;2024-03-08T15:39:52;23.48;;;15.48;;
19863;SDS011;10094;48.820;9.226;2024-03-08T15:46:35;23.88;;;15.95;;
19863;SDS011;10094;48.820;9.226;2024-03-08T15:53:18;23.10;;;16.27;;
19863;SDS011;10094;48.820;9.226;2024-03-08T16:00:02;24.52;;;16.35;;
19863;SDS011;10094;48.820;9.226;2024-03-08T16:06:58;21.60;;;14.75;;
19863;SDS011;10094;48.820;9.226;2024-03-08T16:13:42;20.77;;;14.80;;
19863;SDS011;10094;48.820;9.226;2024-03-08T16:20:25;19.52;;;12.93;;
19863;SDS011;10094;48.820;9.226;2024-03-08T16:27:08;18.70;;;12.88;;
19863;SDS011;10094;48.820;9.226;2024-03-08T16:33:51;18.52;;;13.25;;
19863;SDS011;10094;48.820;9.226;2024-03-08T16:40:34;18.35;;;12.98;;
19863;SDS011;10094;48.820;9.226;2024-03-08T16:47:18;17.77;;;13.35;;
19863;SDS011;10094;48.820;9.226;2024-03-08T16:54:04;19.40;;;12.55;;
19863;SDS011;10094;48.820;9.226;2024-03-08T17:00:47;20.98;;;13.68;;
19863;SDS011;10094;48.820;9.226;2024-03-08T17:07:30;17.10;;;11.98;;
19863;SDS011;10094;48.820;9.226;2024-03-08T17:14:14;18.33;;;11.52;;
19863;SDS011;10094;48.820;9.226;2024-03-08T17:20:56;18.48;;;11.68;;
19863;SDS011;10094;48.820;9.226;2024-03-08T17:27:39;20.27;;;11.88;;
19863;SDS011;10094;48.820;9.226;2024-03-08T17:34:22;16.20;;;11.38;;
19863;SDS011;10094;48.820;9.226;2024-03-08T17:41:10;17.65;;;12.18;;
19863;SDS011;10094;48.820;9.226;2024-03-08T17:47:54;17.02;;;11.15;;
19863;SDS011;10094;48.820;9.226;2024-03-08T17:54:37;17.73;;;11.75;;
19863;SDS011;10094;48.820;9.226;2024-03-08T18:01:19;16.48;;;11.23;;
19863;SDS011;10094;48.820;9.226;2024-03-08T18:08:03;16.73;;;11.20;;
19863;SDS011;10094;48.820;9.226;2024-03-08T18:14:46;21.58;;;14.82;;
19863;SDS011;10094;48.820;9.226;2024-03-08T18:21:28;21.70;;;13.38;;
19863;SDS011;10094;48.820;9.226;2024-03-08T18:28:13;16.80;;;11.52;;
19863;SDS011;10094;48.820;9.226;2024-03-08T18:34:58;18.90;;;12.32;;
19863;SDS011;10094;48.820;9.226;2024-03-08T18:41:41;17.63;;;11.82;;
19863;SDS011;10094;48.820;9.226;2024-03-08T18:48:23;19.55;;;10.82;;
19863;SDS011;10094;48.820;9.226;2024-03-08T18:55:09;16.50;;;10.98;;
19863;SDS011;10094;48.820;9.226;2024-03-08T19:01:52;19.10;;;12.00;;
19863;SDS011;10094;48.820;9.226;2024-03-08T19:08:36;17.85;;;12.13;;
19863;SDS011;10094;48.820;9.226;2024-03-08T19:15:19;19.02;;;11.63;;
19863;SDS011;10094;48.820;9.226;2024-03-08T19:22:02;20.63;;;12.38;;
19863;SDS011;10094;48.820;9.226;2024-03-08T19:28:46;19.10;;;12.80;;
19863;SDS011;10094;48.820;9.226;2024-03-08T19:35:29;20.80;;;11.90;;
19863;SDS011;10094;48.820;9.226;2024-03-08T19:42:13;19.90;;;12.18;;
19863;SDS011;10094;48.820;9.226;2024-03-08T19:48:56;16.17;;;11.20;;
19863;SDS011;10094;48.820;9.226;2024-03-08T19:55:39;18.70;;;11.80;;
19863;SDS011;10094;48.820;9.226;2024-03-08T20:02:23;19.88;;;11.65;;
19863;SDS011;10094;48.820;9.226;2024-03-08T20:09:11;19.83;;;12.38;;
19863;SDS011;10094;48.820;9.226;2024-03-08T20:15:53;19.80;;;12.07;;
19863;SDS011;10094;48.820;9.226;2024-03-08T20:22:37;18.33;;;10.95;;
19863;SDS011;10094;48.820;9.226;2024-03-08T20:29:20;28.75;;;15.00;;
19863;SDS011;10094;48.820;9.226;2024-03-08T20:36:03;35.67;;;20.65;;
19863;SDS011;10094;48.820;9.226;2024-03-08T20:42:47;20.15;;;12.88;;
19863;SDS011;10094;48.820;9.226;2024-03-08T20:49:29;18.45;;;12.48;;
19863;SDS011;10094;48.820;9.226;2024-03-08T20:56:12;18.50;;;12.65;;
19863;SDS011;10094;48.820;9.226;2024-03-08T21:02:57;22.05;;;13.27;;
19863;SDS011;10094;48.820;9.226;2024-03-08T21:09:42;22.45;;;13.98;;
19863;SDS011;10094;48.820;9.226;2024-03-08T21:16:24;21.20;;;13.75;;
19863;SDS011;10094;48.820;9.226;2024-03-08T21:23:07;21.40;;;12.88;;
19863;SDS011;10094;48.820;9.226;2024-03-08T21:29:52;23.35;;;13.52;;
19863;SDS011;10094;48.820;9.226;2024-03-08T21:36:35;23.95;;;13.45;;
19863;SDS011;10094;48.820;9.226;2024-03-08T21:43:18;23.05;;;14.73;;
19863;SDS011;10094;48.820;9.226;2024-03-08T21:50:02;20.83;;;13.50;;
19863;SDS011;10094;48.820;9.226;2024-03-08T21:56:45;17.52;;;11.73;;
19863;SDS011;10094;48.820;9.226;2024-03-08T22:03:29;19.50;;;12.90;;
19863;SDS011;10094;48.820;9.226;2024-03-08T22:10:14;25.77;;;13.98;;
19863;SDS011;10094;48.820;9.226;2024-03-08T22:17:08;20.05;;;12.50;;
19863;SDS011;10094;48.820;9.226;2024-03-08T22:23:56;25.50;;;17.77;;
19863;SDS011;10094;48.820;9.226;2024-03-08T22:30:39;19.85;;;12.40;;
19863;SDS011;10094;48.820;9.226;2024-03-08T22:37:22;21.52;;;12.55;;
19863;SDS011;10094;48.820;9.226;2024-03-08T22:44:05;21.88;;;12.50;;
19863;SDS011;10094;48.820;9.226;2024-03-08T22:50:49;17.40;;;11.90;;
19863;SDS011;10094;48.820;9.226;2024-03-08T22:57:32;24.90;;;12.68;;
19863;SDS011;10094;48.820;9.226;2024-03-08T23:04:15;17.73;;;13.68;;
19863;SDS011;10094;48.820;9.226;2024-03-08T23:10:58;20.27;;;13.13;;
19863;SDS011;10094;48.820;9.226;2024-03-08T23:17:45;20.38;;;12.52;;
19863;SDS011;10094;48.820;9.226;2024-03-08T23:24:31;19.33;;;12.25;;
19863;SDS011;10094;48.820;9.226;2024-03-08T23:31:13;19.38;;;12.20;;
19863;SDS011;10094;48.820;9.226;2024-03-08T23:37:56;15.98;;;11.15;;
19863;SDS011;10094;48.820;9.226;2024-03-08T23:44:42;21.92;;;12.30;;
19863;SDS011;10094;48.820;9.226;2024-03-08T23:51:26;20.33;;;13.73;;
19863;SDS011;10094;48.820;9.226;2024-03-08T23:58:10;19.42;;;11.73;;
